createdAt,value
2019-05-30T00:00:43.840Z,12.69
2019-05-30T00:04:48.738Z,12.67
2019-05-30T00:08:54.337Z,12.67
2019-05-30T00:13:00.634Z,12.66
2019-05-30T00:17:05.694Z,12.71
2019-05-30T00:21:10.585Z,12.72
2019-05-30T00:25:15.486Z,12.86
2019-05-30T00:29:21.353Z,12.88
2019-05-30T00:33:26.253Z,12.97
2019-05-30T00:37:31.153Z,13.06
2019-05-30T00:41:37.011Z,13.11
2019-05-30T00:45:41.903Z,13.22
2019-05-30T00:49:46.805Z,13.38
2019-05-30T00:53:51.704Z,13.51
2019-05-30T00:57:56.785Z,13.61
2019-05-30T01:02:02.801Z,13.71
2019-05-30T01:06:08.919Z,13.76
2019-05-30T01:10:14.091Z,13.78
2019-05-30T01:14:19.945Z,13.87
2019-05-30T01:18:24.849Z,13.87
2019-05-30T01:22:29.732Z,13.89
2019-05-30T01:26:34.640Z,13.71
2019-05-30T01:30:39.549Z,13.82
2019-05-30T01:34:44.444Z,13.77
2019-05-30T01:38:49.346Z,13.72
2019-05-30T01:42:54.231Z,13.66
2019-05-30T01:47:00.143Z,13.61
2019-05-30T01:51:05.020Z,13.54
2019-05-30T01:55:11.831Z,13.46
2019-05-30T01:59:16.725Z,13.37
2019-05-30T02:03:21.618Z,13.28
2019-05-30T02:07:26.527Z,13.19
2019-05-30T02:11:31.431Z,13.12
2019-05-30T02:15:36.324Z,13.03
2019-05-30T02:19:41.224Z,12.94
2019-05-30T02:23:46.112Z,12.84
2019-05-30T02:27:51.013Z,12.80
2019-05-30T02:31:55.912Z,12.72
2019-05-30T02:36:01.719Z,12.64
2019-05-30T02:40:12.351Z,12.53
2019-05-30T02:44:15.723Z,12.41
2019-05-30T02:48:20.689Z,12.38
2019-05-30T02:52:25.571Z,12.37
2019-05-30T02:56:30.484Z,12.40
2019-05-30T03:00:37.026Z,12.43
2019-05-30T03:04:41.911Z,12.43
2019-05-30T03:08:47.445Z,12.43
2019-05-30T03:12:52.528Z,12.41
2019-05-30T03:17:28.150Z,12.45
2019-05-30T03:21:33.116Z,12.46
2019-05-30T03:25:38.020Z,12.48
2019-05-30T03:29:42.913Z,12.52
2019-05-30T03:33:47.886Z,12.54
2019-05-30T03:37:52.779Z,12.60
2019-05-30T03:41:57.674Z,12.63
2019-05-30T03:46:05.932Z,12.68
2019-05-30T03:50:17.067Z,12.76
2019-05-30T03:54:20.274Z,12.85
2019-05-30T03:58:40.300Z,12.99
2019-05-30T04:02:57.091Z,13.15
2019-05-30T04:07:06.892Z,13.79
2019-05-30T04:11:16.855Z,15.40
2019-05-30T04:15:28.650Z,17.07
2019-05-30T04:19:33.548Z,18.17
2019-05-30T04:23:38.464Z,18.35
2019-05-30T04:27:43.381Z,19.02
2019-05-30T04:31:48.354Z,20.33
2019-05-30T04:35:53.195Z,20.97
2019-05-30T04:39:58.099Z,21.91
2019-05-30T04:44:03.006Z,22.43
2019-05-30T04:48:07.916Z,22.61
2019-05-30T04:52:16.241Z,22.52
2019-05-30T04:56:21.720Z,22.08
2019-05-30T05:00:25.998Z,21.94
2019-05-30T05:04:30.893Z,22.60
2019-05-30T05:08:35.794Z,23.34
2019-05-30T05:12:40.689Z,23.85
2019-05-30T05:16:45.582Z,24.99
2019-05-30T05:20:50.494Z,25.89
2019-05-30T05:24:55.389Z,26.54
2019-05-30T05:29:00.278Z,26.40
2019-05-30T05:33:05.446Z,26.53
2019-05-30T05:37:10.330Z,26.59
2019-05-30T05:41:16.108Z,26.71
2019-05-30T05:45:22.796Z,27.08
2019-05-30T05:49:28.868Z,27.35
2019-05-30T05:53:33.909Z,27.07
2019-05-30T05:57:38.800Z,28.05
2019-05-30T06:01:43.818Z,28.99
2019-05-30T06:05:52.984Z,28.87
2019-05-30T06:09:55.324Z,29.64
2019-05-30T06:14:00.218Z,29.79
2019-05-30T06:18:05.177Z,29.93
2019-05-30T06:22:10.079Z,29.81
2019-05-30T06:26:14.995Z,29.82
2019-05-30T06:30:22.363Z,28.42
2019-05-30T06:34:37.998Z,27.82
2019-05-30T06:38:33.926Z,27.66
2019-05-30T06:42:38.820Z,27.82
2019-05-30T06:46:43.717Z,29.17
2019-05-30T06:50:48.617Z,29.16
2019-05-30T06:54:53.516Z,29.29
2019-05-30T06:58:58.421Z,29.33
2019-05-30T07:03:03.336Z,29.13
2019-05-30T07:07:08.377Z,28.43
2019-05-30T07:11:13.396Z,27.05
2019-05-30T07:15:18.627Z,25.89
2019-05-30T07:19:23.526Z,24.92
2019-05-30T07:23:28.414Z,24.26
2019-05-30T07:27:34.139Z,23.79
2019-05-30T07:31:39.095Z,23.43
2019-05-30T07:35:44.001Z,23.08
2019-05-30T07:39:48.914Z,22.81
2019-05-30T07:43:53.873Z,22.76
2019-05-30T07:47:58.796Z,22.71
2019-05-30T07:52:03.674Z,22.77
2019-05-30T07:56:08.568Z,22.93
2019-05-30T08:00:16.242Z,23.19
2019-05-30T08:04:21.138Z,23.25
2019-05-30T08:08:26.042Z,23.27
2019-05-30T08:12:32.018Z,23.03
2019-05-30T08:16:37.516Z,22.70
2019-05-30T08:20:42.514Z,22.67
2019-05-30T08:24:48.468Z,22.56
2019-05-30T08:28:53.372Z,22.48
2019-05-30T08:32:58.287Z,22.54
2019-05-30T08:37:03.186Z,22.60
2019-05-30T08:41:08.086Z,22.70
2019-05-30T08:45:13.309Z,22.58
2019-05-30T08:49:18.213Z,22.52
2019-05-30T08:53:23.107Z,22.40
2019-05-30T08:57:28.016Z,22.38
2019-05-30T09:01:32.924Z,22.43
2019-05-30T09:05:38.683Z,22.48
2019-05-30T09:09:44.431Z,22.27
2019-05-30T09:13:49.318Z,22.29
2019-05-30T09:17:54.218Z,22.25
2019-05-30T09:21:59.124Z,22.17
2019-05-30T09:26:04.037Z,22.28
2019-05-30T09:30:11.671Z,22.56
2019-05-30T09:34:16.578Z,22.68
2019-05-30T09:38:21.491Z,22.91
2019-05-30T09:42:26.397Z,23.10
2019-05-30T09:46:31.288Z,23.14
2019-05-30T09:50:36.179Z,23.10
2019-05-30T09:54:41.232Z,23.15
2019-05-30T09:58:47.771Z,23.15
2019-05-30T10:02:52.767Z,23.03
2019-05-30T10:06:57.647Z,22.97
2019-05-30T10:11:02.622Z,22.92
2019-05-30T10:15:11.305Z,23.12
2019-05-30T10:19:16.255Z,23.39
2019-05-30T10:23:21.163Z,23.47
2019-05-30T10:27:26.061Z,23.39
2019-05-30T10:31:30.952Z,23.25
2019-05-30T10:35:35.853Z,23.28
2019-05-30T10:39:40.753Z,23.19
2019-05-30T10:43:46.444Z,23.18
2019-05-30T10:47:53.644Z,23.24
2019-05-30T10:51:59.450Z,23.38
2019-05-30T10:56:04.771Z,23.51
2019-05-30T11:00:12.460Z,23.78
2019-05-30T11:04:17.426Z,23.80
2019-05-30T11:08:27.813Z,23.94
2019-05-30T11:12:32.702Z,24.01
2019-05-30T11:16:37.598Z,24.07
2019-05-30T11:20:42.575Z,24.13
2019-05-30T11:24:48.191Z,24.32
2019-05-30T11:28:53.145Z,24.40
2019-05-30T11:32:59.117Z,24.49
2019-05-30T11:37:18.203Z,24.63
2019-05-30T11:41:11.025Z,24.63
2019-05-30T11:45:16.530Z,24.38
2019-05-30T11:49:21.432Z,24.27
2019-05-30T11:53:26.353Z,24.28
2019-05-30T11:57:31.408Z,24.22
2019-05-30T12:01:36.322Z,24.14
2019-05-30T12:05:41.225Z,23.98
2019-05-30T12:09:46.121Z,23.80
2019-05-30T12:13:51.738Z,23.85
2019-05-30T12:17:57.489Z,23.85
2019-05-30T12:22:02.468Z,23.73
2019-05-30T12:26:08.335Z,23.67
2019-05-30T12:30:15.117Z,23.68
2019-05-30T12:34:20.987Z,23.76
2019-05-30T12:38:25.876Z,23.81
2019-05-30T12:42:30.846Z,23.84
2019-05-30T12:46:35.743Z,23.83
2019-05-30T12:50:40.648Z,23.75
2019-05-30T12:54:45.545Z,23.86
2019-05-30T12:58:50.443Z,24.06
2019-05-30T13:02:55.364Z,24.07
2019-05-30T13:07:01.307Z,23.95
2019-05-30T13:11:06.242Z,23.77
2019-05-30T13:15:11.611Z,23.69
2019-05-30T13:19:17.266Z,23.61
2019-05-30T13:23:22.172Z,23.60
2019-05-30T13:27:27.056Z,23.47
2019-05-30T13:31:33.108Z,23.42
2019-05-30T13:35:38.009Z,23.31
2019-05-30T13:39:42.903Z,23.15
2019-05-30T13:43:47.813Z,23.09
2019-05-30T13:47:52.719Z,22.99
2019-05-30T13:51:58.832Z,23.02
2019-05-30T13:56:03.801Z,23.36
2019-05-30T14:00:10.611Z,23.62
2019-05-30T14:04:17.277Z,23.69
2019-05-30T14:08:22.182Z,23.89
2019-05-30T14:12:27.081Z,23.90
2019-05-30T14:16:31.977Z,23.83
2019-05-30T14:20:36.948Z,23.80
2019-05-30T14:24:41.834Z,23.85
2019-05-30T14:28:46.739Z,23.86
2019-05-30T14:32:51.650Z,23.82
2019-05-30T14:36:56.548Z,23.87
2019-05-30T14:41:02.815Z,23.99
2019-05-30T14:45:08.864Z,24.06
2019-05-30T14:49:13.759Z,23.98
2019-05-30T14:53:18.652Z,23.85
2019-05-30T14:57:23.559Z,23.77
2019-05-30T15:01:28.523Z,23.62
2019-05-30T15:05:33.415Z,23.71
2019-05-30T15:09:38.308Z,23.84
2019-05-30T15:13:43.212Z,24.01
2019-05-30T15:17:48.177Z,24.25
2019-05-30T15:21:53.088Z,24.21
2019-05-30T15:25:57.971Z,24.10
2019-05-30T15:30:03.507Z,24.02
2019-05-30T15:34:08.564Z,24.07
2019-05-30T15:38:15.082Z,23.92
2019-05-30T15:42:20.039Z,23.67
2019-05-30T15:46:24.939Z,23.68
2019-05-30T15:50:29.836Z,23.75
2019-05-30T15:54:34.745Z,23.76
2019-05-30T15:58:39.645Z,23.68
2019-05-30T16:02:44.552Z,23.44
2019-05-30T16:06:49.442Z,23.27
2019-05-30T16:10:54.335Z,23.16
2019-05-30T16:14:59.244Z,23.04
2019-05-30T16:19:15.565Z,22.92
2019-05-30T16:23:10.744Z,22.76
2019-05-30T16:27:15.846Z,22.73
2019-05-30T16:31:22.291Z,22.70
2019-05-30T16:35:27.371Z,22.65
2019-05-30T16:39:32.268Z,22.68
2019-05-30T16:43:37.181Z,22.70
2019-05-30T16:47:42.078Z,22.65
2019-05-30T16:51:46.966Z,22.49
2019-05-30T16:55:51.859Z,22.34
2019-05-30T16:59:56.766Z,22.24
2019-05-30T17:04:01.677Z,22.17
2019-05-30T17:08:06.656Z,22.13
2019-05-30T17:12:11.545Z,22.12
2019-05-30T17:16:16.462Z,22.18
2019-05-30T17:20:22.575Z,22.21
2019-05-30T17:24:27.477Z,22.22
2019-05-30T17:28:32.372Z,22.21
2019-05-30T17:32:37.262Z,22.11
2019-05-30T17:36:42.162Z,21.97
2019-05-30T17:40:49.629Z,21.85
2019-05-30T17:44:53.655Z,21.81
2019-05-30T17:48:58.558Z,21.79
2019-05-30T17:53:03.452Z,21.79
2019-05-30T17:57:08.360Z,21.76
2019-05-30T18:01:13.313Z,21.73
2019-05-30T18:05:18.549Z,21.72
2019-05-30T18:09:23.457Z,21.60
2019-05-30T18:13:29.246Z,21.49
2019-05-30T18:17:34.300Z,21.41
2019-05-30T18:21:39.206Z,21.39
2019-05-30T18:25:44.112Z,21.37
2019-05-30T18:29:49.018Z,21.27
2019-05-30T18:33:53.907Z,21.24
2019-05-30T18:38:01.788Z,21.20
2019-05-30T18:42:05.539Z,21.08
2019-05-30T18:46:10.449Z,21.03
2019-05-30T18:50:15.428Z,20.97
2019-05-30T18:54:20.321Z,20.94
2019-05-30T18:58:25.226Z,20.88
2019-05-30T19:02:31.273Z,20.80
2019-05-30T19:06:36.357Z,20.72
2019-05-30T19:10:41.251Z,20.64
2019-05-30T19:14:46.159Z,20.59
2019-05-30T19:18:51.126Z,20.50
2019-05-30T19:22:56.029Z,20.45
2019-05-30T19:27:00.929Z,20.40
2019-05-30T19:31:05.829Z,20.36
2019-05-30T19:35:11.059Z,20.31
2019-05-30T19:39:15.958Z,20.27
2019-05-30T19:43:20.867Z,20.26
2019-05-30T19:47:25.761Z,20.22
2019-05-30T19:51:31.491Z,20.16
2019-05-30T19:55:37.561Z,20.11
2019-05-30T19:59:42.589Z,20.01
2019-05-30T20:04:17.658Z,19.84
2019-05-30T20:08:22.557Z,19.69
2019-05-30T20:12:27.467Z,19.56
2019-05-30T20:16:33.745Z,19.45
2019-05-30T20:20:54.157Z,19.37
2019-05-30T20:24:45.332Z,19.34
2019-05-30T20:28:50.252Z,19.36
2019-05-30T20:32:55.137Z,19.30
2019-05-30T20:37:00.038Z,19.29
2019-05-30T20:41:04.954Z,19.27
2019-05-30T20:45:10.683Z,19.26
2019-05-30T20:49:15.587Z,19.25
2019-05-30T20:53:20.700Z,19.28
2019-05-30T20:57:55.578Z,19.25
2019-05-30T21:02:00.489Z,19.20
2019-05-30T21:06:05.375Z,19.13
2019-05-30T21:10:12.287Z,19.03
2019-05-30T21:14:17.934Z,18.99
2019-05-30T21:18:24.404Z,19.01
2019-05-30T21:22:29.301Z,19.01
2019-05-30T21:26:34.189Z,18.97
2019-05-30T21:30:39.090Z,18.96
2019-05-30T21:34:44.559Z,18.93
2019-05-30T21:38:50.649Z,18.90
2019-05-30T21:43:05.796Z,18.90
2019-05-30T21:47:02.154Z,18.87
2019-05-30T21:51:07.052Z,18.84
2019-05-30T21:55:12.030Z,18.78
2019-05-30T21:59:16.935Z,18.76
2019-05-30T22:03:21.838Z,18.73
2019-05-30T22:07:26.734Z,18.69
2019-05-30T22:11:31.639Z,18.66
2019-05-30T22:15:36.542Z,18.58
2019-05-30T22:19:41.715Z,18.54
2019-05-30T22:23:46.615Z,18.53
2019-05-30T22:27:52.539Z,18.49
2019-05-30T22:31:57.487Z,18.45
2019-05-30T22:36:02.392Z,18.43
2019-05-30T22:40:07.288Z,18.39
2019-05-30T22:44:12.194Z,18.35
2019-05-30T22:48:17.083Z,18.26
2019-05-30T22:52:21.987Z,18.13
2019-05-30T22:56:27.861Z,18.00
2019-05-30T23:00:32.838Z,17.91
2019-05-30T23:04:37.748Z,17.86
2019-05-30T23:08:42.643Z,17.82
2019-05-30T23:12:47.751Z,17.80
2019-05-30T23:16:52.619Z,17.78
2019-05-30T23:20:57.516Z,17.78
2019-05-30T23:25:02.413Z,17.77
2019-05-30T23:29:07.302Z,17.73
2019-05-30T23:33:12.214Z,17.76
2019-05-30T23:37:17.100Z,17.77
2019-05-30T23:41:22.006Z,17.78
2019-05-30T23:45:26.903Z,17.76
2019-05-30T23:49:31.793Z,17.77
2019-05-30T23:53:36.692Z,17.81
2019-05-30T23:57:41.583Z,17.80
